KDTW/DTW METAR and TAF weather

Enter ICAO airport designator
Station Type Date Time Source
KDTW METAR 2018/10/21 04:53 UTC NOAA

KDTW 210453Z 32021G31KT 10SM OVC040 03/M06 A3012 RMK AO2 PK WND 34031/0452 SLP203 T00281056 401500028 $


Station Type Date Time Source
KDTW Decoded METAR 2018/10/21 04:53 UTC NOAA

DETROIT METROPOLITAN, MI, United States (KDTW) 42-14N 83-20W 195M
Oct 21, 2018 - 12:53 AM EDT / 2018.10.21 0453 UTC
Wind: from the NW (320 degrees) at 24 MPH (21 KT) gusting to 36 MPH (31 KT):0
Visibility: 10 mile(s):0
Sky conditions: overcast
Temperature: 37.0 F (2.8 C)
Dew Point: 21.9 F (-5.6 C)
Relative Humidity: 53%
Pressure (altimeter): 30.12 in. Hg (1019 hPa)
ob: KDTW 210453Z 32021G31KT 10SM OVC040 03/M06 A3012 RMK AO2 PK WND 34031/0452 SLP203 T00281056 401500028
cycle: 5

Station Type Date Time Source
KDTW TAF 2018/10/21 06:27 UTC NOAA

TAF KDTW 210524Z 2106/2212 32011KT P6SM BKN035
TEMPO 2106/2107 32012G24KT
FM211200 30008KT P6SM SCT025
FM211800 26010KT P6SM SCT035
FM220000 23008KT P6SM SCT100


Example: see airport list